sensor_id;sensor_type;location;lat;lon;timestamp;P1;durP1;ratioP1;P2;durP2;ratioP2
22673;SDS011;11504;43.334;21.918;2022-11-20T00:00:08;48.0;;;46.0;;
22673;SDS011;11504;43.334;21.918;2022-11-20T00:04:50;44.0;;;41.0;;
22673;SDS011;11504;43.334;21.918;2022-11-20T00:09:27;44.0;;;41.0;;
22673;SDS011;11504;43.334;21.918;2022-11-20T00:14:04;39.0;;;36.0;;
22673;SDS011;11504;43.334;21.918;2022-11-20T00:18:41;39.0;;;36.0;;
22673;SDS011;11504;43.334;21.918;2022-11-20T00:23:19;39.0;;;36.0;;
22673;SDS011;11504;43.334;21.918;2022-11-20T00:27:56;39.0;;;37.0;;
22673;SDS011;11504;43.334;21.918;2022-11-20T00:32:33;39.0;;;37.0;;
22673;SDS011;11504;43.334;21.918;2022-11-20T00:37:10;39.0;;;38.0;;
22673;SDS011;11504;43.334;21.918;2022-11-20T00:41:46;39.0;;;38.0;;
22673;SDS011;11504;43.334;21.918;2022-11-20T00:46:25;39.0;;;38.0;;
22673;SDS011;11504;43.334;21.918;2022-11-20T00:51:05;39.0;;;38.0;;
22673;SDS011;11504;43.334;21.918;2022-11-20T00:55:42;39.0;;;37.0;;
22673;SDS011;11504;43.334;21.918;2022-11-20T01:00:18;39.0;;;37.0;;
22673;SDS011;11504;43.334;21.918;2022-11-20T01:04:55;42.0;;;40.0;;
22673;SDS011;11504;43.334;21.918;2022-11-20T01:09:31;42.0;;;40.0;;
22673;SDS011;11504;43.334;21.918;2022-11-20T01:14:13;44.0;;;42.0;;
22673;SDS011;11504;43.334;21.918;2022-11-20T01:18:58;44.0;;;42.0;;
22673;SDS011;11504;43.334;21.918;2022-11-20T01:23:47;44.0;;;42.0;;
22673;SDS011;11504;43.334;21.918;2022-11-20T01:28:28;38.0;;;36.0;;
22673;SDS011;11504;43.334;21.918;2022-11-20T01:33:08;38.0;;;36.0;;
22673;SDS011;11504;43.334;21.918;2022-11-20T01:37:45;31.0;;;29.0;;
22673;SDS011;11504;43.334;21.918;2022-11-20T01:42:21;31.0;;;29.0;;
22673;SDS011;11504;43.334;21.918;2022-11-20T01:47:02;28.0;;;26.0;;
22673;SDS011;11504;43.334;21.918;2022-11-20T01:51:57;28.0;;;26.0;;
22673;SDS011;11504;43.334;21.918;2022-11-20T01:56:56;26.0;;;24.0;;
22673;SDS011;11504;43.334;21.918;2022-11-20T02:01:37;26.0;;;24.0;;
22673;SDS011;11504;43.334;21.918;2022-11-20T02:06:20;28.0;;;26.0;;
22673;SDS011;11504;43.334;21.918;2022-11-20T02:11:05;28.0;;;26.0;;
22673;SDS011;11504;43.334;21.918;2022-11-20T02:15:43;30.0;;;28.0;;
22673;SDS011;11504;43.334;21.918;2022-11-20T02:20:23;30.0;;;28.0;;
22673;SDS011;11504;43.334;21.918;2022-11-20T02:25:02;30.0;;;28.0;;
22673;SDS011;11504;43.334;21.918;2022-11-20T02:29:52;30.0;;;28.0;;
22673;SDS011;11504;43.334;21.918;2022-11-20T02:34:40;30.0;;;27.0;;
22673;SDS011;11504;43.334;21.918;2022-11-20T02:39:19;30.0;;;27.0;;
22673;SDS011;11504;43.334;21.918;2022-11-20T02:44:05;32.0;;;28.0;;
22673;SDS011;11504;43.334;21.918;2022-11-20T02:48:42;32.0;;;28.0;;
22673;SDS011;11504;43.334;21.918;2022-11-20T02:53:18;32.0;;;28.0;;
22673;SDS011;11504;43.334;21.918;2022-11-20T02:57:54;33.0;;;30.0;;
22673;SDS011;11504;43.334;21.918;2022-11-20T03:02:32;33.0;;;30.0;;
22673;SDS011;11504;43.334;21.918;2022-11-20T03:07:10;34.0;;;31.0;;
22673;SDS011;11504;43.334;21.918;2022-11-20T03:11:46;34.0;;;31.0;;
22673;SDS011;11504;43.334;21.918;2022-11-20T03:16:23;34.0;;;32.0;;
22673;SDS011;11504;43.334;21.918;2022-11-20T03:21:00;34.0;;;32.0;;
22673;SDS011;11504;43.334;21.918;2022-11-20T03:25:36;32.0;;;30.0;;
22673;SDS011;11504;43.334;21.918;2022-11-20T03:30:13;32.0;;;30.0;;
22673;SDS011;11504;43.334;21.918;2022-11-20T03:34:50;31.0;;;29.0;;
22673;SDS011;11504;43.334;21.918;2022-11-20T03:39:26;31.0;;;29.0;;
22673;SDS011;11504;43.334;21.918;2022-11-20T03:44:06;31.0;;;29.0;;
22673;SDS011;11504;43.334;21.918;2022-11-20T03:48:48;32.0;;;30.0;;
22673;SDS011;11504;43.334;21.918;2022-11-20T03:53:26;32.0;;;30.0;;
22673;SDS011;11504;43.334;21.918;2022-11-20T03:58:03;32.0;;;31.0;;
22673;SDS011;11504;43.334;21.918;2022-11-20T04:02:40;32.0;;;31.0;;
22673;SDS011;11504;43.334;21.918;2022-11-20T04:07:17;32.0;;;31.0;;
22673;SDS011;11504;43.334;21.918;2022-11-20T04:11:54;32.0;;;31.0;;
22673;SDS011;11504;43.334;21.918;2022-11-20T04:16:34;32.0;;;31.0;;
22673;SDS011;11504;43.334;21.918;2022-11-20T04:21:12;32.0;;;31.0;;
22673;SDS011;11504;43.334;21.918;2022-11-20T04:25:49;29.0;;;28.0;;
22673;SDS011;11504;43.334;21.918;2022-11-20T04:30:26;29.0;;;28.0;;
22673;SDS011;11504;43.334;21.918;2022-11-20T04:35:03;26.0;;;25.0;;
22673;SDS011;11504;43.334;21.918;2022-11-20T04:39:41;26.0;;;25.0;;
22673;SDS011;11504;43.334;21.918;2022-11-20T04:44:19;20.0;;;20.0;;
22673;SDS011;11504;43.334;21.918;2022-11-20T04:48:56;20.0;;;20.0;;
22673;SDS011;11504;43.334;21.918;2022-11-20T04:53:33;20.0;;;20.0;;
22673;SDS011;11504;43.334;21.918;2022-11-20T04:58:10;15.0;;;14.0;;
22673;SDS011;11504;43.334;21.918;2022-11-20T05:02:49;15.0;;;14.0;;
22673;SDS011;11504;43.334;21.918;2022-11-20T05:07:26;13.0;;;12.0;;
22673;SDS011;11504;43.334;21.918;2022-11-20T05:12:03;13.0;;;12.0;;
22673;SDS011;11504;43.334;21.918;2022-11-20T05:16:44;11.0;;;10.0;;
22673;SDS011;11504;43.334;21.918;2022-11-20T05:21:22;11.0;;;10.0;;
22673;SDS011;11504;43.334;21.918;2022-11-20T05:26:00;10.0;;;10.0;;
22673;SDS011;11504;43.334;21.918;2022-11-20T05:30:40;10.0;;;10.0;;
22673;SDS011;11504;43.334;21.918;2022-11-20T05:35:17;10.0;;;9.0;;
22673;SDS011;11504;43.334;21.918;2022-11-20T05:39:54;10.0;;;9.0;;
22673;SDS011;11504;43.334;21.918;2022-11-20T05:44:31;10.0;;;9.0;;
22673;SDS011;11504;43.334;21.918;2022-11-20T05:49:08;10.0;;;9.0;;
22673;SDS011;11504;43.334;21.918;2022-11-20T05:53:45;10.0;;;9.0;;
22673;SDS011;11504;43.334;21.918;2022-11-20T05:58:22;9.0;;;9.0;;
22673;SDS011;11504;43.334;21.918;2022-11-20T06:02:59;9.0;;;9.0;;
22673;SDS011;11504;43.334;21.918;2022-11-20T06:07:35;10.0;;;10.0;;
22673;SDS011;11504;43.334;21.918;2022-11-20T06:12:12;10.0;;;10.0;;
22673;SDS011;11504;43.334;21.918;2022-11-20T06:16:48;10.0;;;10.0;;
22673;SDS011;11504;43.334;21.918;2022-11-20T06:21:25;10.0;;;10.0;;
22673;SDS011;11504;43.334;21.918;2022-11-20T06:26:05;12.0;;;12.0;;
22673;SDS011;11504;43.334;21.918;2022-11-20T06:30:51;12.0;;;12.0;;
22673;SDS011;11504;43.334;21.918;2022-11-20T06:35:28;15.0;;;14.0;;
22673;SDS011;11504;43.334;21.918;2022-11-20T06:40:06;15.0;;;14.0;;
22673;SDS011;11504;43.334;21.918;2022-11-20T06:44:48;18.0;;;17.0;;
22673;SDS011;11504;43.334;21.918;2022-11-20T06:49:25;18.0;;;17.0;;
22673;SDS011;11504;43.334;21.918;2022-11-20T06:54:02;18.0;;;17.0;;
22673;SDS011;11504;43.334;21.918;2022-11-20T06:58:40;21.0;;;20.0;;
22673;SDS011;11504;43.334;21.918;2022-11-20T07:03:17;21.0;;;20.0;;
22673;SDS011;11504;43.334;21.918;2022-11-20T07:07:55;22.0;;;21.0;;
22673;SDS011;11504;43.334;21.918;2022-11-20T07:12:32;22.0;;;21.0;;
22673;SDS011;11504;43.334;21.918;2022-11-20T07:17:09;24.0;;;22.0;;
22673;SDS011;11504;43.334;21.918;2022-11-20T07:21:45;24.0;;;22.0;;
22673;SDS011;11504;43.334;21.918;2022-11-20T07:26:21;18.0;;;16.0;;
22673;SDS011;11504;43.334;21.918;2022-11-20T07:30:57;18.0;;;16.0;;
22673;SDS011;11504;43.334;21.918;2022-11-20T07:35:34;11.0;;;11.0;;
22673;SDS011;11504;43.334;21.918;2022-11-20T07:40:12;11.0;;;11.0;;
22673;SDS011;11504;43.334;21.918;2022-11-20T07:44:49;20.0;;;20.0;;
22673;SDS011;11504;43.334;21.918;2022-11-20T07:49:25;20.0;;;20.0;;
22673;SDS011;11504;43.334;21.918;2022-11-20T07:54:02;20.0;;;20.0;;
22673;SDS011;11504;43.334;21.918;2022-11-20T07:58:40;30.0;;;29.0;;
22673;SDS011;11504;43.334;21.918;2022-11-20T08:03:16;30.0;;;29.0;;
22673;SDS011;11504;43.334;21.918;2022-11-20T08:07:53;40.0;;;38.0;;
22673;SDS011;11504;43.334;21.918;2022-11-20T08:12:29;40.0;;;38.0;;
22673;SDS011;11504;43.334;21.918;2022-11-20T08:17:06;51.0;;;48.0;;
22673;SDS011;11504;43.334;21.918;2022-11-20T08:21:42;51.0;;;48.0;;
22673;SDS011;11504;43.334;21.918;2022-11-20T08:26:21;48.0;;;46.0;;
22673;SDS011;11504;43.334;21.918;2022-11-20T08:30:59;48.0;;;46.0;;
22673;SDS011;11504;43.334;21.918;2022-11-20T08:35:38;46.0;;;44.0;;
22673;SDS011;11504;43.334;21.918;2022-11-20T08:40:15;46.0;;;44.0;;
22673;SDS011;11504;43.334;21.918;2022-11-20T08:44:51;47.0;;;45.0;;
22673;SDS011;11504;43.334;21.918;2022-11-20T08:49:28;47.0;;;45.0;;
22673;SDS011;11504;43.334;21.918;2022-11-20T08:54:05;47.0;;;45.0;;
22673;SDS011;11504;43.334;21.918;2022-11-20T08:58:44;48.0;;;46.0;;
22673;SDS011;11504;43.334;21.918;2022-11-20T09:03:21;48.0;;;46.0;;
22673;SDS011;11504;43.334;21.918;2022-11-20T09:07:59;48.0;;;46.0;;
22673;SDS011;11504;43.334;21.918;2022-11-20T09:12:36;48.0;;;46.0;;
22673;SDS011;11504;43.334;21.918;2022-11-20T09:17:13;48.0;;;46.0;;
22673;SDS011;11504;43.334;21.918;2022-11-20T09:21:49;48.0;;;46.0;;
22673;SDS011;11504;43.334;21.918;2022-11-20T09:26:26;48.0;;;45.0;;
22673;SDS011;11504;43.334;21.918;2022-11-20T09:31:05;48.0;;;45.0;;
22673;SDS011;11504;43.334;21.918;2022-11-20T09:35:51;47.0;;;44.0;;
22673;SDS011;11504;43.334;21.918;2022-11-20T09:40:29;47.0;;;44.0;;
22673;SDS011;11504;43.334;21.918;2022-11-20T09:45:20;42.0;;;40.0;;
22673;SDS011;11504;43.334;21.918;2022-11-20T09:50:28;42.0;;;40.0;;
22673;SDS011;11504;43.334;21.918;2022-11-20T09:55:18;37.0;;;35.0;;
22673;SDS011;11504;43.334;21.918;2022-11-20T10:00:00;37.0;;;35.0;;
22673;SDS011;11504;43.334;21.918;2022-11-20T10:04:53;55.0;;;52.0;;
22673;SDS011;11504;43.334;21.918;2022-11-20T10:09:53;55.0;;;52.0;;
22673;SDS011;11504;43.334;21.918;2022-11-20T10:14:46;73.0;;;70.0;;
22673;SDS011;11504;43.334;21.918;2022-11-20T10:20:07;73.0;;;70.0;;
22673;SDS011;11504;43.334;21.918;2022-11-20T10:25:11;61.0;;;58.0;;
22673;SDS011;11504;43.334;21.918;2022-11-20T10:30:03;61.0;;;58.0;;
22673;SDS011;11504;43.334;21.918;2022-11-20T10:34:57;49.0;;;47.0;;
22673;SDS011;11504;43.334;21.918;2022-11-20T10:40:05;49.0;;;47.0;;
22673;SDS011;11504;43.334;21.918;2022-11-20T10:45:31;54.0;;;52.0;;
22673;SDS011;11504;43.334;21.918;2022-11-20T10:50:49;54.0;;;52.0;;
22673;SDS011;11504;43.334;21.918;2022-11-20T10:56:20;60.0;;;57.0;;
22673;SDS011;11504;43.334;21.918;2022-11-20T11:01:21;60.0;;;57.0;;
22673;SDS011;11504;43.334;21.918;2022-11-20T11:06:07;39.0;;;37.0;;
22673;SDS011;11504;43.334;21.918;2022-11-20T11:11:21;39.0;;;37.0;;
22673;SDS011;11504;43.334;21.918;2022-11-20T11:16:22;18.0;;;17.0;;
22673;SDS011;11504;43.334;21.918;2022-11-20T11:21:04;18.0;;;17.0;;
22673;SDS011;11504;43.334;21.918;2022-11-20T11:25:41;30.0;;;28.0;;
22673;SDS011;11504;43.334;21.918;2022-11-20T11:30:20;30.0;;;28.0;;
22673;SDS011;11504;43.334;21.918;2022-11-20T11:35:00;41.0;;;39.0;;
22673;SDS011;11504;43.334;21.918;2022-11-20T11:39:56;41.0;;;39.0;;
22673;SDS011;11504;43.334;21.918;2022-11-20T11:44:34;41.0;;;39.0;;
22673;SDS011;11504;43.334;21.918;2022-11-20T11:49:17;40.0;;;38.0;;
22673;SDS011;11504;43.334;21.918;2022-11-20T11:53:58;40.0;;;38.0;;
22673;SDS011;11504;43.334;21.918;2022-11-20T11:58:58;38.0;;;36.0;;
22673;SDS011;11504;43.334;21.918;2022-11-20T12:04:05;38.0;;;36.0;;
22673;SDS011;11504;43.334;21.918;2022-11-20T12:09:34;30.0;;;28.0;;
22673;SDS011;11504;43.334;21.918;2022-11-20T12:14:36;22.0;;;21.0;;
22673;SDS011;11504;43.334;21.918;2022-11-20T12:19:24;22.0;;;21.0;;
22673;SDS011;11504;43.334;21.918;2022-11-20T12:24:34;22.0;;;21.0;;
22673;SDS011;11504;43.334;21.918;2022-11-20T12:29:43;20.0;;;18.0;;
22673;SDS011;11504;43.334;21.918;2022-11-20T12:34:49;17.0;;;16.0;;
22673;SDS011;11504;43.334;21.918;2022-11-20T12:39:48;17.0;;;16.0;;
22673;SDS011;11504;43.334;21.918;2022-11-20T12:44:59;25.0;;;24.0;;
22673;SDS011;11504;43.334;21.918;2022-11-20T12:50:15;25.0;;;24.0;;
22673;SDS011;11504;43.334;21.918;2022-11-20T12:55:28;33.0;;;32.0;;
22673;SDS011;11504;43.334;21.918;2022-11-20T13:00:25;33.0;;;32.0;;
22673;SDS011;11504;43.334;21.918;2022-11-20T13:05:18;44.0;;;42.0;;
22673;SDS011;11504;43.334;21.918;2022-11-20T13:10:31;44.0;;;42.0;;
22673;SDS011;11504;43.334;21.918;2022-11-20T13:15:43;56.0;;;53.0;;
22673;SDS011;11504;43.334;21.918;2022-11-20T13:20:45;56.0;;;53.0;;
22673;SDS011;11504;43.334;21.918;2022-11-20T13:25:25;42.0;;;40.0;;
22673;SDS011;11504;43.334;21.918;2022-11-20T13:30:17;42.0;;;40.0;;
22673;SDS011;11504;43.334;21.918;2022-11-20T13:35:04;27.0;;;26.0;;
22673;SDS011;11504;43.334;21.918;2022-11-20T13:39:44;27.0;;;26.0;;
22673;SDS011;11504;43.334;21.918;2022-11-20T13:44:29;27.0;;;26.0;;
22673;SDS011;11504;43.334;21.918;2022-11-20T13:49:27;22.0;;;22.0;;
22673;SDS011;11504;43.334;21.918;2022-11-20T13:55:11;17.0;;;17.0;;
22673;SDS011;11504;43.334;21.918;2022-11-20T14:00:17;17.0;;;17.0;;
22673;SDS011;11504;43.334;21.918;2022-11-20T14:05:01;18.0;;;18.0;;
22673;SDS011;11504;43.334;21.918;2022-11-20T14:09:53;18.0;;;18.0;;
22673;SDS011;11504;43.334;21.918;2022-11-20T14:14:33;18.0;;;18.0;;
22673;SDS011;11504;43.334;21.918;2022-11-20T14:19:26;19.0;;;18.0;;
22673;SDS011;11504;43.334;21.918;2022-11-20T14:24:10;19.0;;;18.0;;
22673;SDS011;11504;43.334;21.918;2022-11-20T14:28:54;27.0;;;26.0;;
22673;SDS011;11504;43.334;21.918;2022-11-20T14:33:34;27.0;;;26.0;;
22673;SDS011;11504;43.334;21.918;2022-11-20T14:38:16;35.0;;;33.0;;
22673;SDS011;11504;43.334;21.918;2022-11-20T14:43:19;35.0;;;33.0;;
22673;SDS011;11504;43.334;21.918;2022-11-20T14:48:04;35.0;;;33.0;;
22673;SDS011;11504;43.334;21.918;2022-11-20T14:52:51;35.0;;;33.0;;
22673;SDS011;11504;43.334;21.918;2022-11-20T14:57:36;35.0;;;33.0;;
22673;SDS011;11504;43.334;21.918;2022-11-20T15:02:13;35.0;;;33.0;;
22673;SDS011;11504;43.334;21.918;2022-11-20T15:06:57;32.0;;;30.0;;
22673;SDS011;11504;43.334;21.918;2022-11-20T15:11:36;32.0;;;30.0;;
22673;SDS011;11504;43.334;21.918;2022-11-20T15:16:19;28.0;;;26.0;;
22673;SDS011;11504;43.334;21.918;2022-11-20T15:21:03;28.0;;;26.0;;
22673;SDS011;11504;43.334;21.918;2022-11-20T15:25:49;25.0;;;24.0;;
22673;SDS011;11504;43.334;21.918;2022-11-20T15:30:25;25.0;;;24.0;;
22673;SDS011;11504;43.334;21.918;2022-11-20T15:35:02;22.0;;;21.0;;
22673;SDS011;11504;43.334;21.918;2022-11-20T15:39:41;22.0;;;21.0;;
22673;SDS011;11504;43.334;21.918;2022-11-20T15:44:18;22.0;;;21.0;;
22673;SDS011;11504;43.334;21.918;2022-11-20T15:48:56;30.0;;;28.0;;
22673;SDS011;11504;43.334;21.918;2022-11-20T15:53:36;30.0;;;28.0;;
22673;SDS011;11504;43.334;21.918;2022-11-20T15:58:15;37.0;;;36.0;;
22673;SDS011;11504;43.334;21.918;2022-11-20T16:02:51;37.0;;;36.0;;
22673;SDS011;11504;43.334;21.918;2022-11-20T16:07:28;36.0;;;35.0;;
22673;SDS011;11504;43.334;21.918;2022-11-20T16:12:08;36.0;;;35.0;;
22673;SDS011;11504;43.334;21.918;2022-11-20T16:16:46;36.0;;;34.0;;
22673;SDS011;11504;43.334;21.918;2022-11-20T16:21:23;36.0;;;34.0;;
22673;SDS011;11504;43.334;21.918;2022-11-20T16:26:09;32.0;;;30.0;;
22673;SDS011;11504;43.334;21.918;2022-11-20T16:30:52;32.0;;;30.0;;
22673;SDS011;11504;43.334;21.918;2022-11-20T16:35:30;27.0;;;26.0;;
22673;SDS011;11504;43.334;21.918;2022-11-20T16:40:09;27.0;;;26.0;;
22673;SDS011;11504;43.334;21.918;2022-11-20T16:44:47;27.0;;;26.0;;
22673;SDS011;11504;43.334;21.918;2022-11-20T16:49:24;28.0;;;26.0;;
22673;SDS011;11504;43.334;21.918;2022-11-20T16:54:01;28.0;;;26.0;;
22673;SDS011;11504;43.334;21.918;2022-11-20T16:58:39;29.0;;;27.0;;
22673;SDS011;11504;43.334;21.918;2022-11-20T17:03:17;29.0;;;27.0;;
22673;SDS011;11504;43.334;21.918;2022-11-20T17:07:54;23.0;;;22.0;;
22673;SDS011;11504;43.334;21.918;2022-11-20T17:12:31;23.0;;;22.0;;
22673;SDS011;11504;43.334;21.918;2022-11-20T17:17:08;17.0;;;16.0;;
22673;SDS011;11504;43.334;21.918;2022-11-20T17:21:45;17.0;;;16.0;;
22673;SDS011;11504;43.334;21.918;2022-11-20T17:26:23;14.0;;;13.0;;
22673;SDS011;11504;43.334;21.918;2022-11-20T17:31:00;14.0;;;13.0;;
22673;SDS011;11504;43.334;21.918;2022-11-20T17:35:43;11.0;;;10.0;;
22673;SDS011;11504;43.334;21.918;2022-11-20T17:40:20;11.0;;;10.0;;
22673;SDS011;11504;43.334;21.918;2022-11-20T17:44:57;16.0;;;16.0;;
22673;SDS011;11504;43.334;21.918;2022-11-20T17:49:33;16.0;;;16.0;;
22673;SDS011;11504;43.334;21.918;2022-11-20T17:54:10;16.0;;;16.0;;
22673;SDS011;11504;43.334;21.918;2022-11-20T17:58:47;22.0;;;21.0;;
22673;SDS011;11504;43.334;21.918;2022-11-20T18:03:24;22.0;;;21.0;;
22673;SDS011;11504;43.334;21.918;2022-11-20T18:08:00;18.0;;;16.0;;
22673;SDS011;11504;43.334;21.918;2022-11-20T18:12:36;18.0;;;16.0;;
22673;SDS011;11504;43.334;21.918;2022-11-20T18:17:14;13.0;;;12.0;;
22673;SDS011;11504;43.334;21.918;2022-11-20T18:21:51;13.0;;;12.0;;
22673;SDS011;11504;43.334;21.918;2022-11-20T18:26:29;21.0;;;20.0;;
22673;SDS011;11504;43.334;21.918;2022-11-20T18:31:07;21.0;;;20.0;;
22673;SDS011;11504;43.334;21.918;2022-11-20T18:35:46;29.0;;;28.0;;
22673;SDS011;11504;43.334;21.918;2022-11-20T18:40:23;29.0;;;28.0;;
22673;SDS011;11504;43.334;21.918;2022-11-20T18:45:00;27.0;;;26.0;;
22673;SDS011;11504;43.334;21.918;2022-11-20T18:49:39;27.0;;;26.0;;
22673;SDS011;11504;43.334;21.918;2022-11-20T18:54:17;27.0;;;26.0;;
22673;SDS011;11504;43.334;21.918;2022-11-20T18:58:54;25.0;;;24.0;;
22673;SDS011;11504;43.334;21.918;2022-11-20T19:03:34;25.0;;;24.0;;
22673;SDS011;11504;43.334;21.918;2022-11-20T19:08:11;24.0;;;23.0;;
22673;SDS011;11504;43.334;21.918;2022-11-20T19:12:47;24.0;;;23.0;;
22673;SDS011;11504;43.334;21.918;2022-11-20T19:17:24;23.0;;;22.0;;
22673;SDS011;11504;43.334;21.918;2022-11-20T19:22:00;23.0;;;22.0;;
22673;SDS011;11504;43.334;21.918;2022-11-20T19:26:37;20.0;;;18.0;;
22673;SDS011;11504;43.334;21.918;2022-11-20T19:31:17;20.0;;;18.0;;
22673;SDS011;11504;43.334;21.918;2022-11-20T19:35:57;16.0;;;15.0;;
22673;SDS011;11504;43.334;21.918;2022-11-20T19:40:44;16.0;;;15.0;;
22673;SDS011;11504;43.334;21.918;2022-11-20T19:45:21;20.0;;;19.0;;
22673;SDS011;11504;43.334;21.918;2022-11-20T19:49:57;20.0;;;19.0;;
22673;SDS011;11504;43.334;21.918;2022-11-20T19:54:34;20.0;;;19.0;;
22673;SDS011;11504;43.334;21.918;2022-11-20T19:59:13;25.0;;;23.0;;
22673;SDS011;11504;43.334;21.918;2022-11-20T20:03:52;25.0;;;23.0;;
22673;SDS011;11504;43.334;21.918;2022-11-20T20:08:32;20.0;;;18.0;;
22673;SDS011;11504;43.334;21.918;2022-11-20T20:13:09;20.0;;;18.0;;
22673;SDS011;11504;43.334;21.918;2022-11-20T20:17:46;15.0;;;14.0;;
22673;SDS011;11504;43.334;21.918;2022-11-20T20:22:22;15.0;;;14.0;;
22673;SDS011;11504;43.334;21.918;2022-11-20T20:26:59;14.0;;;14.0;;
22673;SDS011;11504;43.334;21.918;2022-11-20T20:31:35;14.0;;;14.0;;
22673;SDS011;11504;43.334;21.918;2022-11-20T20:36:14;13.0;;;13.0;;
22673;SDS011;11504;43.334;21.918;2022-11-20T20:40:56;13.0;;;13.0;;
22673;SDS011;11504;43.334;21.918;2022-11-20T20:45:32;12.0;;;12.0;;
22673;SDS011;11504;43.334;21.918;2022-11-20T20:50:10;12.0;;;12.0;;
22673;SDS011;11504;43.334;21.918;2022-11-20T20:54:47;12.0;;;12.0;;
22673;SDS011;11504;43.334;21.918;2022-11-20T20:59:24;11.0;;;11.0;;
22673;SDS011;11504;43.334;21.918;2022-11-20T21:04:00;11.0;;;11.0;;
22673;SDS011;11504;43.334;21.918;2022-11-20T21:08:37;11.0;;;10.0;;
22673;SDS011;11504;43.334;21.918;2022-11-20T21:13:15;11.0;;;10.0;;
22673;SDS011;11504;43.334;21.918;2022-11-20T21:17:52;11.0;;;10.0;;
22673;SDS011;11504;43.334;21.918;2022-11-20T21:22:29;11.0;;;10.0;;
22673;SDS011;11504;43.334;21.918;2022-11-20T21:27:06;12.0;;;10.0;;
22673;SDS011;11504;43.334;21.918;2022-11-20T21:31:42;12.0;;;10.0;;
22673;SDS011;11504;43.334;21.918;2022-11-20T21:36:22;12.0;;;11.0;;
22673;SDS011;11504;43.334;21.918;2022-11-20T21:41:08;12.0;;;11.0;;
22673;SDS011;11504;43.334;21.918;2022-11-20T21:45:51;14.0;;;13.0;;
22673;SDS011;11504;43.334;21.918;2022-11-20T21:50:27;14.0;;;13.0;;
22673;SDS011;11504;43.334;21.918;2022-11-20T21:55:05;14.0;;;13.0;;
22673;SDS011;11504;43.334;21.918;2022-11-20T21:59:43;15.0;;;15.0;;
22673;SDS011;11504;43.334;21.918;2022-11-20T22:04:19;15.0;;;15.0;;
22673;SDS011;11504;43.334;21.918;2022-11-20T22:08:56;14.0;;;14.0;;
22673;SDS011;11504;43.334;21.918;2022-11-20T22:13:33;14.0;;;14.0;;
22673;SDS011;11504;43.334;21.918;2022-11-20T22:18:10;13.0;;;12.0;;
22673;SDS011;11504;43.334;21.918;2022-11-20T22:22:47;13.0;;;12.0;;
22673;SDS011;11504;43.334;21.918;2022-11-20T22:27:23;12.0;;;12.0;;
22673;SDS011;11504;43.334;21.918;2022-11-20T22:32:00;12.0;;;12.0;;
22673;SDS011;11504;43.334;21.918;2022-11-20T22:36:37;12.0;;;11.0;;
22673;SDS011;11504;43.334;21.918;2022-11-20T22:41:18;12.0;;;11.0;;
22673;SDS011;11504;43.334;21.918;2022-11-20T22:46:05;12.0;;;11.0;;
22673;SDS011;11504;43.334;21.918;2022-11-20T22:50:46;12.0;;;11.0;;
22673;SDS011;11504;43.334;21.918;2022-11-20T22:55:22;11.0;;;11.0;;
22673;SDS011;11504;43.334;21.918;2022-11-20T22:59:59;11.0;;;11.0;;
22673;SDS011;11504;43.334;21.918;2022-11-20T23:04:35;11.0;;;11.0;;
22673;SDS011;11504;43.334;21.918;2022-11-20T23:09:13;12.0;;;12.0;;
22673;SDS011;11504;43.334;21.918;2022-11-20T23:13:52;12.0;;;12.0;;
22673;SDS011;11504;43.334;21.918;2022-11-20T23:18:34;13.0;;;12.0;;
22673;SDS011;11504;43.334;21.918;2022-11-20T23:23:12;13.0;;;12.0;;
22673;SDS011;11504;43.334;21.918;2022-11-20T23:27:49;13.0;;;12.0;;
22673;SDS011;11504;43.334;21.918;2022-11-20T23:32:25;13.0;;;12.0;;
22673;SDS011;11504;43.334;21.918;2022-11-20T23:37:01;13.0;;;12.0;;
22673;SDS011;11504;43.334;21.918;2022-11-20T23:41:37;13.0;;;12.0;;
22673;SDS011;11504;43.334;21.918;2022-11-20T23:46:14;12.0;;;10.0;;
22673;SDS011;11504;43.334;21.918;2022-11-20T23:50:51;12.0;;;10.0;;
22673;SDS011;11504;43.334;21.918;2022-11-20T23:55:28;10.0;;;9.0;;
